sensor_id;sensor_type;location;lat;lon;timestamp;pressure;altitude;pressure_sealevel;temperature;humidity
34034;BME280;63481;52.588;22.472;2023-03-21T00:01:06;99943.91;;;7.71;98.05
34034;BME280;63481;52.588;22.472;2023-03-21T00:01:59;99945.69;;;7.70;98.21
34034;BME280;63481;52.588;22.472;2023-03-21T00:02:52;99943.41;;;7.71;98.30
34034;BME280;63481;52.588;22.472;2023-03-21T00:03:46;99942.91;;;7.69;98.42
34034;BME280;63481;52.588;22.472;2023-03-21T00:04:41;99942.42;;;7.69;98.63
34034;BME280;63481;52.588;22.472;2023-03-21T00:05:41;99946.95;;;7.70;98.50
34034;BME280;63481;52.588;22.472;2023-03-21T00:06:34;99944.30;;;7.68;98.36
34034;BME280;63481;52.588;22.472;2023-03-21T00:07:28;99940.30;;;7.69;98.65
34034;BME280;63481;52.588;22.472;2023-03-21T00:08:22;99940.71;;;7.70;98.58
34034;BME280;63481;52.588;22.472;2023-03-21T00:09:15;99934.55;;;7.71;98.56
34034;BME280;63481;52.588;22.472;2023-03-21T00:10:09;99938.17;;;7.69;98.66
34034;BME280;63481;52.588;22.472;2023-03-21T00:11:05;99934.77;;;7.67;98.41
34034;BME280;63481;52.588;22.472;2023-03-21T00:11:58;99931.48;;;7.65;98.75
34034;BME280;63481;52.588;22.472;2023-03-21T00:12:52;99930.03;;;7.66;98.81
34034;BME280;63481;52.588;22.472;2023-03-21T00:13:49;99932.31;;;7.66;98.66
34034;BME280;63481;52.588;22.472;2023-03-21T00:14:42;99933.77;;;7.65;98.76
34034;BME280;63481;52.588;22.472;2023-03-21T00:15:36;99932.17;;;7.63;98.70
34034;BME280;63481;52.588;22.472;2023-03-21T00:16:41;99933.23;;;7.63;98.40
34034;BME280;63481;52.588;22.472;2023-03-21T00:17:37;99935.84;;;7.61;98.50
34034;BME280;63481;52.588;22.472;2023-03-21T00:18:31;99938.61;;;7.60;98.78
34034;BME280;63481;52.588;22.472;2023-03-21T00:19:23;99936.35;;;7.60;98.71
34034;BME280;63481;52.588;22.472;2023-03-21T00:20:17;99937.86;;;7.59;98.81
34034;BME280;63481;52.588;22.472;2023-03-21T00:21:12;99937.37;;;7.58;98.55
34034;BME280;63481;52.588;22.472;2023-03-21T00:22:07;99934.95;;;7.63;98.88
34034;BME280;63481;52.588;22.472;2023-03-21T00:23:00;99937.47;;;7.62;98.48
34034;BME280;63481;52.588;22.472;2023-03-21T00:23:54;99935.07;;;7.64;98.67
34034;BME280;63481;52.588;22.472;2023-03-21T00:24:47;99933.03;;;7.65;98.42
34034;BME280;63481;52.588;22.472;2023-03-21T00:25:39;99930.44;;;7.66;98.48
34034;BME280;63481;52.588;22.472;2023-03-21T00:26:32;99932.59;;;7.64;98.56
34034;BME280;63481;52.588;22.472;2023-03-21T00:27:24;99929.06;;;7.64;98.21
34034;BME280;63481;52.588;22.472;2023-03-21T00:28:21;99928.55;;;7.63;98.57
34034;BME280;63481;52.588;22.472;2023-03-21T00:29:14;99927.20;;;7.65;98.57
34034;BME280;63481;52.588;22.472;2023-03-21T00:30:07;99931.20;;;7.63;98.54
34034;BME280;63481;52.588;22.472;2023-03-21T00:31:00;99926.25;;;7.63;98.67
34034;BME280;63481;52.588;22.472;2023-03-21T00:31:52;99925.52;;;7.64;98.52
34034;BME280;63481;52.588;22.472;2023-03-21T00:32:46;99921.88;;;7.61;98.43
34034;BME280;63481;52.588;22.472;2023-03-21T00:33:40;99926.34;;;7.59;98.40
34034;BME280;63481;52.588;22.472;2023-03-21T00:34:32;99922.95;;;7.59;98.71
34034;BME280;63481;52.588;22.472;2023-03-21T00:35:25;99922.96;;;7.60;98.14
34034;BME280;63481;52.588;22.472;2023-03-21T00:36:18;99921.56;;;7.56;98.26
34034;BME280;63481;52.588;22.472;2023-03-21T00:37:11;99919.67;;;7.56;98.50
34034;BME280;63481;52.588;22.472;2023-03-21T00:38:08;99918.90;;;7.55;98.43
34034;BME280;63481;52.588;22.472;2023-03-21T00:39:01;99916.89;;;7.54;98.55
34034;BME280;63481;52.588;22.472;2023-03-21T00:39:54;99919.81;;;7.54;98.72
34034;BME280;63481;52.588;22.472;2023-03-21T00:40:47;99919.73;;;7.52;98.61
34034;BME280;63481;52.588;22.472;2023-03-21T00:41:40;99919.91;;;7.54;98.86
34034;BME280;63481;52.588;22.472;2023-03-21T00:42:33;99921.00;;;7.53;98.63
34034;BME280;63481;52.588;22.472;2023-03-21T00:43:25;99922.95;;;7.51;98.81
34034;BME280;63481;52.588;22.472;2023-03-21T00:44:22;99921.41;;;7.48;98.67
34034;BME280;63481;52.588;22.472;2023-03-21T00:45:16;99919.11;;;7.45;98.85
34034;BME280;63481;52.588;22.472;2023-03-21T00:46:10;99920.63;;;7.46;99.07
34034;BME280;63481;52.588;22.472;2023-03-21T00:47:05;99924.45;;;7.44;98.75
34034;BME280;63481;52.588;22.472;2023-03-21T00:47:59;99925.11;;;7.40;99.40
34034;BME280;63481;52.588;22.472;2023-03-21T00:48:55;99927.58;;;7.36;98.90
34034;BME280;63481;52.588;22.472;2023-03-21T00:49:48;99925.17;;;7.35;99.02
34034;BME280;63481;52.588;22.472;2023-03-21T00:50:43;99923.84;;;7.37;99.19
34034;BME280;63481;52.588;22.472;2023-03-21T00:51:37;99927.55;;;7.37;99.42
34034;BME280;63481;52.588;22.472;2023-03-21T00:52:32;99926.73;;;7.41;99.12
34034;BME280;63481;52.588;22.472;2023-03-21T00:53:26;99925.70;;;7.47;99.55
34034;BME280;63481;52.588;22.472;2023-03-21T00:54:20;99921.99;;;7.48;99.06
34034;BME280;63481;52.588;22.472;2023-03-21T00:55:15;99921.23;;;7.48;99.53
34034;BME280;63481;52.588;22.472;2023-03-21T00:56:08;99923.52;;;7.50;99.18
34034;BME280;63481;52.588;22.472;2023-03-21T00:57:02;99920.20;;;7.49;99.38
34034;BME280;63481;52.588;22.472;2023-03-21T00:57:56;99920.92;;;7.52;99.28
34034;BME280;63481;52.588;22.472;2023-03-21T00:58:50;99921.09;;;7.53;99.09
34034;BME280;63481;52.588;22.472;2023-03-21T00:59:42;99919.81;;;7.52;98.81
34034;BME280;63481;52.588;22.472;2023-03-21T01:00:36;99918.28;;;7.55;98.96
34034;BME280;63481;52.588;22.472;2023-03-21T01:01:29;99917.77;;;7.57;98.90
34034;BME280;63481;52.588;22.472;2023-03-21T01:02:25;99918.13;;;7.58;99.04
34034;BME280;63481;52.588;22.472;2023-03-21T01:03:18;99919.05;;;7.60;98.78
34034;BME280;63481;52.588;22.472;2023-03-21T01:04:13;99919.80;;;7.61;98.71
34034;BME280;63481;52.588;22.472;2023-03-21T01:05:09;99917.05;;;7.60;98.50
34034;BME280;63481;52.588;22.472;2023-03-21T01:06:03;99918.12;;;7.61;98.59
34034;BME280;63481;52.588;22.472;2023-03-21T01:06:59;99915.34;;;7.62;98.38
34034;BME280;63481;52.588;22.472;2023-03-21T01:07:52;99916.45;;;7.61;98.56
34034;BME280;63481;52.588;22.472;2023-03-21T01:08:47;99919.20;;;7.60;98.49
34034;BME280;63481;52.588;22.472;2023-03-21T01:09:41;99918.48;;;7.61;98.59
34034;BME280;63481;52.588;22.472;2023-03-21T01:10:43;99916.42;;;7.58;98.70
34034;BME280;63481;52.588;22.472;2023-03-21T01:11:37;99916.22;;;7.58;98.39
34034;BME280;63481;52.588;22.472;2023-03-21T01:12:29;99916.95;;;7.58;98.72
34034;BME280;63481;52.588;22.472;2023-03-21T01:13:23;99916.34;;;7.57;98.57
34034;BME280;63481;52.588;22.472;2023-03-21T01:14:18;99916.63;;;7.58;98.79
34034;BME280;63481;52.588;22.472;2023-03-21T01:15:12;99919.32;;;7.59;98.78
34034;BME280;63481;52.588;22.472;2023-03-21T01:16:07;99917.52;;;7.61;98.80
34034;BME280;63481;52.588;22.472;2023-03-21T01:17:00;99916.63;;;7.63;98.67
34034;BME280;63481;52.588;22.472;2023-03-21T01:17:53;99914.46;;;7.59;98.32
34034;BME280;63481;52.588;22.472;2023-03-21T01:18:45;99917.29;;;7.53;98.33
34034;BME280;63481;52.588;22.472;2023-03-21T01:19:38;99916.50;;;7.57;98.75
34034;BME280;63481;52.588;22.472;2023-03-21T01:20:31;99917.36;;;7.58;98.77
34034;BME280;63481;52.588;22.472;2023-03-21T01:21:23;99912.34;;;7.60;98.66
34034;BME280;63481;52.588;22.472;2023-03-21T01:22:16;99915.83;;;7.61;98.71
34034;BME280;63481;52.588;22.472;2023-03-21T01:23:11;99913.71;;;7.60;98.87
34034;BME280;63481;52.588;22.472;2023-03-21T01:24:05;99917.98;;;7.59;98.62
34034;BME280;63481;52.588;22.472;2023-03-21T01:24:58;99914.05;;;7.57;98.40
34034;BME280;63481;52.588;22.472;2023-03-21T01:25:52;99915.73;;;7.52;98.65
34034;BME280;63481;52.588;22.472;2023-03-21T01:26:46;99916.05;;;7.50;98.59
34034;BME280;63481;52.588;22.472;2023-03-21T01:27:39;99913.27;;;7.51;99.01
34034;BME280;63481;52.588;22.472;2023-03-21T01:28:35;99913.67;;;7.50;98.97
34034;BME280;63481;52.588;22.472;2023-03-21T01:29:28;99911.88;;;7.48;99.07
34034;BME280;63481;52.588;22.472;2023-03-21T01:30:20;99913.72;;;7.50;99.25
34034;BME280;63481;52.588;22.472;2023-03-21T01:31:14;99912.70;;;7.53;99.13
34034;BME280;63481;52.588;22.472;2023-03-21T01:32:07;99913.55;;;7.54;99.22
34034;BME280;63481;52.588;22.472;2023-03-21T01:33:00;99916.00;;;7.56;99.17
34034;BME280;63481;52.588;22.472;2023-03-21T01:33:53;99913.16;;;7.57;99.10
34034;BME280;63481;52.588;22.472;2023-03-21T01:34:46;99914.29;;;7.57;99.18
34034;BME280;63481;52.588;22.472;2023-03-21T01:35:39;99915.20;;;7.59;99.15
34034;BME280;63481;52.588;22.472;2023-03-21T01:36:31;99915.21;;;7.60;99.07
34034;BME280;63481;52.588;22.472;2023-03-21T01:37:28;99912.30;;;7.64;98.83
34034;BME280;63481;52.588;22.472;2023-03-21T01:38:21;99912.66;;;7.65;98.54
34034;BME280;63481;52.588;22.472;2023-03-21T01:39:14;99914.02;;;7.66;98.59
34034;BME280;63481;52.588;22.472;2023-03-21T01:40:09;99914.10;;;7.65;98.48
34034;BME280;63481;52.588;22.472;2023-03-21T01:41:05;99912.66;;;7.64;98.60
34034;BME280;63481;52.588;22.472;2023-03-21T01:42:01;99912.77;;;7.63;98.79
34034;BME280;63481;52.588;22.472;2023-03-21T01:42:54;99914.03;;;7.61;98.90
34034;BME280;63481;52.588;22.472;2023-03-21T01:43:47;99914.75;;;7.57;98.71
34034;BME280;63481;52.588;22.472;2023-03-21T01:47:29;99904.98;;;7.53;98.58
34034;BME280;63481;52.588;22.472;2023-03-21T01:48:40;99909.30;;;7.56;98.94
34034;BME280;63481;52.588;22.472;2023-03-21T01:49:37;99909.80;;;7.55;98.97
34034;BME280;63481;52.588;22.472;2023-03-21T01:50:55;99911.50;;;7.60;99.13
34034;BME280;63481;52.588;22.472;2023-03-21T01:52:20;99909.48;;;7.60;98.90
34034;BME280;63481;52.588;22.472;2023-03-21T01:53:18;99910.63;;;7.59;98.50
34034;BME280;63481;52.588;22.472;2023-03-21T01:54:18;99906.14;;;7.58;98.94
34034;BME280;63481;52.588;22.472;2023-03-21T01:55:16;99905.68;;;7.58;98.66
34034;BME280;63481;52.588;22.472;2023-03-21T01:56:19;99906.44;;;7.54;98.71
34034;BME280;63481;52.588;22.472;2023-03-21T01:57:27;99904.88;;;7.53;98.94
34034;BME280;63481;52.588;22.472;2023-03-21T01:58:26;99904.10;;;7.59;99.04
34034;BME280;63481;52.588;22.472;2023-03-21T01:59:30;99905.68;;;7.59;98.87
34034;BME280;63481;52.588;22.472;2023-03-21T02:00:38;99903.52;;;7.57;98.74
34034;BME280;63481;52.588;22.472;2023-03-21T02:01:42;99901.14;;;7.56;98.84
34034;BME280;63481;52.588;22.472;2023-03-21T02:02:38;99902.36;;;7.56;98.97
34034;BME280;63481;52.588;22.472;2023-03-21T02:04:03;99903.75;;;7.55;98.54
34034;BME280;63481;52.588;22.472;2023-03-21T02:05:50;99903.02;;;7.55;99.26
34034;BME280;63481;52.588;22.472;2023-03-21T02:06:53;99904.14;;;7.52;98.71
34034;BME280;63481;52.588;22.472;2023-03-21T02:07:59;99898.75;;;7.52;98.91
34034;BME280;63481;52.588;22.472;2023-03-21T02:08:53;99896.42;;;7.53;99.09
34034;BME280;63481;52.588;22.472;2023-03-21T02:09:49;99897.04;;;7.52;98.90
34034;BME280;63481;52.588;22.472;2023-03-21T02:10:47;99895.27;;;7.50;98.97
34034;BME280;63481;52.588;22.472;2023-03-21T02:11:45;99899.66;;;7.52;99.23
34034;BME280;63481;52.588;22.472;2023-03-21T02:12:38;99898.13;;;7.52;99.23
34034;BME280;63481;52.588;22.472;2023-03-21T02:13:32;99896.41;;;7.50;98.98
34034;BME280;63481;52.588;22.472;2023-03-21T02:14:27;99898.09;;;7.49;98.87
34034;BME280;63481;52.588;22.472;2023-03-21T02:15:26;99902.09;;;7.46;99.12
34034;BME280;63481;52.588;22.472;2023-03-21T02:16:37;99898.54;;;7.43;99.06
34034;BME280;63481;52.588;22.472;2023-03-21T02:21:51;99901.70;;;7.35;99.53
34034;BME280;63481;52.588;22.472;2023-03-21T02:27:46;99914.16;;;7.30;99.91
34034;BME280;63481;52.588;22.472;2023-03-21T02:28:54;99914.70;;;7.33;99.95
34034;BME280;63481;52.588;22.472;2023-03-21T02:31:21;99914.23;;;7.31;99.97
34034;BME280;63481;52.588;22.472;2023-03-21T02:32:46;99920.85;;;7.31;100.00
34034;BME280;63481;52.588;22.472;2023-03-21T02:34:24;99920.95;;;7.33;100.00
34034;BME280;63481;52.588;22.472;2023-03-21T02:35:59;99924.33;;;7.31;100.00
34034;BME280;63481;52.588;22.472;2023-03-21T02:38:23;99927.08;;;7.25;100.00
34034;BME280;63481;52.588;22.472;2023-03-21T02:39:26;99929.29;;;7.26;100.00
34034;BME280;63481;52.588;22.472;2023-03-21T02:41:20;99925.53;;;7.24;100.00
34034;BME280;63481;52.588;22.472;2023-03-21T02:43:24;99925.63;;;7.25;100.00
34034;BME280;63481;52.588;22.472;2023-03-21T02:45:34;99921.33;;;7.24;100.00
34034;BME280;63481;52.588;22.472;2023-03-21T02:47:42;99920.44;;;7.25;100.00
34034;BME280;63481;52.588;22.472;2023-03-21T02:49:10;99919.42;;;7.26;100.00
34034;BME280;63481;52.588;22.472;2023-03-21T02:50:25;99924.46;;;7.23;100.00
34034;BME280;63481;52.588;22.472;2023-03-21T02:51:22;99922.79;;;7.24;100.00
34034;BME280;63481;52.588;22.472;2023-03-21T02:52:21;99921.52;;;7.22;100.00
34034;BME280;63481;52.588;22.472;2023-03-21T02:53:18;99921.89;;;7.24;100.00
34034;BME280;63481;52.588;22.472;2023-03-21T02:54:16;99925.36;;;7.24;100.00
34034;BME280;63481;52.588;22.472;2023-03-21T02:55:16;99918.88;;;7.23;100.00
34034;BME280;63481;52.588;22.472;2023-03-21T02:56:17;99922.55;;;7.24;100.00
34034;BME280;63481;52.588;22.472;2023-03-21T02:57:13;99919.64;;;7.22;100.00
34034;BME280;63481;52.588;22.472;2023-03-21T02:58:10;99922.39;;;7.23;100.00
34034;BME280;63481;52.588;22.472;2023-03-21T02:59:05;99922.30;;;7.22;100.00
34034;BME280;63481;52.588;22.472;2023-03-21T02:59:59;99920.73;;;7.20;100.00
34034;BME280;63481;52.588;22.472;2023-03-21T03:00:57;99922.04;;;7.21;100.00
34034;BME280;63481;52.588;22.472;2023-03-21T03:02:03;99923.11;;;7.23;100.00
34034;BME280;63481;52.588;22.472;2023-03-21T03:02:56;99920.10;;;7.24;100.00
34034;BME280;63481;52.588;22.472;2023-03-21T03:03:49;99924.52;;;7.24;100.00
34034;BME280;63481;52.588;22.472;2023-03-21T03:04:42;99924.48;;;7.23;100.00
34034;BME280;63481;52.588;22.472;2023-03-21T03:05:41;99923.19;;;7.20;100.00
34034;BME280;63481;52.588;22.472;2023-03-21T03:06:46;99921.34;;;7.21;100.00
34034;BME280;63481;52.588;22.472;2023-03-21T03:11:28;99922.30;;;7.22;100.00
34034;BME280;63481;52.588;22.472;2023-03-21T03:14:08;99916.55;;;7.17;100.00
34034;BME280;63481;52.588;22.472;2023-03-21T03:16:26;99919.35;;;7.21;100.00
34034;BME280;63481;52.588;22.472;2023-03-21T03:19:31;99919.48;;;7.17;100.00
34034;BME280;63481;52.588;22.472;2023-03-21T03:20:37;99914.86;;;7.15;100.00
34034;BME280;63481;52.588;22.472;2023-03-21T03:21:41;99920.48;;;7.15;100.00
34034;BME280;63481;52.588;22.472;2023-03-21T03:24:16;99921.23;;;7.16;100.00
34034;BME280;63481;52.588;22.472;2023-03-21T03:25:13;99920.16;;;7.16;100.00
34034;BME280;63481;52.588;22.472;2023-03-21T03:26:16;99918.25;;;7.16;100.00
34034;BME280;63481;52.588;22.472;2023-03-21T03:27:16;99922.23;;;7.14;100.00
34034;BME280;63481;52.588;22.472;2023-03-21T03:28:14;99920.48;;;7.13;100.00
34034;BME280;63481;52.588;22.472;2023-03-21T03:29:12;99914.09;;;7.14;100.00
34034;BME280;63481;52.588;22.472;2023-03-21T03:30:08;99918.95;;;7.16;100.00
34034;BME280;63481;52.588;22.472;2023-03-21T03:31:02;99921.87;;;7.15;100.00
34034;BME280;63481;52.588;22.472;2023-03-21T03:32:59;99920.00;;;7.15;100.00
34034;BME280;63481;52.588;22.472;2023-03-21T03:33:58;99915.65;;;7.13;100.00
34034;BME280;63481;52.588;22.472;2023-03-21T03:34:54;99914.12;;;7.14;100.00
34034;BME280;63481;52.588;22.472;2023-03-21T03:35:49;99914.52;;;7.13;100.00
34034;BME280;63481;52.588;22.472;2023-03-21T03:36:46;99917.95;;;7.13;100.00
34034;BME280;63481;52.588;22.472;2023-03-21T03:37:47;99914.71;;;7.12;100.00
34034;BME280;63481;52.588;22.472;2023-03-21T03:38:41;99912.29;;;7.10;100.00
34034;BME280;63481;52.588;22.472;2023-03-21T03:39:39;99914.00;;;7.10;100.00
34034;BME280;63481;52.588;22.472;2023-03-21T03:40:39;99913.40;;;7.12;100.00
34034;BME280;63481;52.588;22.472;2023-03-21T03:41:47;99914.36;;;7.10;100.00
34034;BME280;63481;52.588;22.472;2023-03-21T03:42:53;99913.18;;;7.09;100.00
34034;BME280;63481;52.588;22.472;2023-03-21T03:43:57;99914.78;;;7.06;100.00
34034;BME280;63481;52.588;22.472;2023-03-21T03:44:52;99915.80;;;7.04;100.00
34034;BME280;63481;52.588;22.472;2023-03-21T03:45:51;99915.74;;;7.03;100.00
34034;BME280;63481;52.588;22.472;2023-03-21T03:46:55;99912.83;;;7.06;100.00
34034;BME280;63481;52.588;22.472;2023-03-21T03:47:54;99915.05;;;7.05;100.00
34034;BME280;63481;52.588;22.472;2023-03-21T03:48:57;99913.16;;;7.06;100.00
34034;BME280;63481;52.588;22.472;2023-03-21T03:50:01;99911.85;;;7.06;100.00
34034;BME280;63481;52.588;22.472;2023-03-21T03:51:07;99909.09;;;7.08;100.00
34034;BME280;63481;52.588;22.472;2023-03-21T03:52:22;99910.77;;;7.09;100.00
34034;BME280;63481;52.588;22.472;2023-03-21T03:54:43;99912.84;;;7.11;100.00
34034;BME280;63481;52.588;22.472;2023-03-21T03:55:37;99909.39;;;7.05;100.00
34034;BME280;63481;52.588;22.472;2023-03-21T03:56:35;99911.11;;;7.01;100.00
34034;BME280;63481;52.588;22.472;2023-03-21T03:57:29;99909.16;;;7.07;100.00
34034;BME280;63481;52.588;22.472;2023-03-21T03:58:24;99912.98;;;7.10;100.00
34034;BME280;63481;52.588;22.472;2023-03-21T03:59:17;99912.90;;;7.11;100.00
34034;BME280;63481;52.588;22.472;2023-03-21T04:00:24;99908.10;;;7.11;100.00
34034;BME280;63481;52.588;22.472;2023-03-21T04:01:18;99910.06;;;7.06;100.00
34034;BME280;63481;52.588;22.472;2023-03-21T04:02:12;99908.73;;;7.03;100.00
34034;BME280;63481;52.588;22.472;2023-03-21T04:03:05;99909.11;;;7.00;100.00
34034;BME280;63481;52.588;22.472;2023-03-21T04:03:58;99913.73;;;7.03;100.00
34034;BME280;63481;52.588;22.472;2023-03-21T04:04:52;99908.85;;;7.12;100.00
34034;BME280;63481;52.588;22.472;2023-03-21T04:05:45;99910.52;;;7.11;100.00
34034;BME280;63481;52.588;22.472;2023-03-21T04:06:39;99914.61;;;7.14;100.00
34034;BME280;63481;52.588;22.472;2023-03-21T04:07:32;99911.05;;;7.18;100.00
34034;BME280;63481;52.588;22.472;2023-03-21T04:08:26;99910.70;;;7.18;100.00
34034;BME280;63481;52.588;22.472;2023-03-21T04:09:20;99913.85;;;7.17;100.00
34034;BME280;63481;52.588;22.472;2023-03-21T04:10:13;99912.52;;;7.10;100.00
34034;BME280;63481;52.588;22.472;2023-03-21T04:11:07;99912.36;;;7.09;100.00
34034;BME280;63481;52.588;22.472;2023-03-21T04:12:01;99910.02;;;7.08;100.00
34034;BME280;63481;52.588;22.472;2023-03-21T04:12:55;99909.77;;;7.10;100.00
34034;BME280;63481;52.588;22.472;2023-03-21T04:14:06;99914.42;;;7.12;100.00
34034;BME280;63481;52.588;22.472;2023-03-21T04:14:59;99912.43;;;7.12;100.00
34034;BME280;63481;52.588;22.472;2023-03-21T04:15:51;99911.39;;;7.09;100.00
34034;BME280;63481;52.588;22.472;2023-03-21T04:16:44;99913.39;;;7.08;100.00
34034;BME280;63481;52.588;22.472;2023-03-21T04:17:37;99912.16;;;7.09;100.00
34034;BME280;63481;52.588;22.472;2023-03-21T04:18:31;99912.12;;;7.10;100.00
34034;BME280;63481;52.588;22.472;2023-03-21T04:19:24;99917.77;;;7.06;100.00
34034;BME280;63481;52.588;22.472;2023-03-21T04:20:16;99920.05;;;7.07;100.00
34034;BME280;63481;52.588;22.472;2023-03-21T04:21:11;99917.31;;;7.05;100.00
34034;BME280;63481;52.588;22.472;2023-03-21T04:22:04;99920.06;;;7.09;100.00
34034;BME280;63481;52.588;22.472;2023-03-21T04:23:02;99918.11;;;7.09;100.00
34034;BME280;63481;52.588;22.472;2023-03-21T04:23:55;99913.79;;;7.08;100.00
34034;BME280;63481;52.588;22.472;2023-03-21T04:24:47;99917.58;;;7.08;100.00
34034;BME280;63481;52.588;22.472;2023-03-21T04:25:40;99914.96;;;7.08;100.00
34034;BME280;63481;52.588;22.472;2023-03-21T04:26:34;99919.35;;;7.07;100.00
34034;BME280;63481;52.588;22.472;2023-03-21T04:27:56;99914.84;;;7.03;100.00
34034;BME280;63481;52.588;22.472;2023-03-21T04:29:03;99918.39;;;7.04;100.00
34034;BME280;63481;52.588;22.472;2023-03-21T04:30:25;99918.91;;;7.05;100.00
34034;BME280;63481;52.588;22.472;2023-03-21T04:31:28;99920.08;;;7.04;100.00
34034;BME280;63481;52.588;22.472;2023-03-21T04:32:35;99919.23;;;7.05;100.00
34034;BME280;63481;52.588;22.472;2023-03-21T04:33:34;99919.64;;;7.05;100.00
34034;BME280;63481;52.588;22.472;2023-03-21T04:34:30;99919.91;;;7.04;100.00
34034;BME280;63481;52.588;22.472;2023-03-21T04:35:24;99921.82;;;7.04;100.00
34034;BME280;63481;52.588;22.472;2023-03-21T04:36:17;99920.92;;;7.05;100.00
34034;BME280;63481;52.588;22.472;2023-03-21T04:37:20;99924.59;;;7.02;100.00
34034;BME280;63481;52.588;22.472;2023-03-21T04:38:15;99927.95;;;7.05;100.00
34034;BME280;63481;52.588;22.472;2023-03-21T04:39:08;99927.39;;;7.05;100.00
34034;BME280;63481;52.588;22.472;2023-03-21T04:40:05;99928.55;;;7.03;100.00
34034;BME280;63481;52.588;22.472;2023-03-21T04:40:59;99924.92;;;7.03;100.00
34034;BME280;63481;52.588;22.472;2023-03-21T04:41:53;99925.61;;;7.04;100.00
34034;BME280;63481;52.588;22.472;2023-03-21T04:42:47;99927.46;;;7.05;100.00
34034;BME280;63481;52.588;22.472;2023-03-21T04:43:40;99926.39;;;7.05;100.00
34034;BME280;63481;52.588;22.472;2023-03-21T04:44:33;99926.10;;;7.04;100.00
34034;BME280;63481;52.588;22.472;2023-03-21T04:45:26;99925.71;;;7.02;100.00
34034;BME280;63481;52.588;22.472;2023-03-21T04:46:18;99926.30;;;7.03;100.00
34034;BME280;63481;52.588;22.472;2023-03-21T04:47:11;99926.32;;;7.04;100.00
34034;BME280;63481;52.588;22.472;2023-03-21T04:48:05;99927.77;;;7.04;100.00
34034;BME280;63481;52.588;22.472;2023-03-21T04:48:57;99931.42;;;7.01;100.00
34034;BME280;63481;52.588;22.472;2023-03-21T04:49:50;99926.02;;;6.99;100.00
34034;BME280;63481;52.588;22.472;2023-03-21T04:50:45;99924.93;;;7.00;100.00
34034;BME280;63481;52.588;22.472;2023-03-21T04:51:38;99930.88;;;6.99;100.00
34034;BME280;63481;52.588;22.472;2023-03-21T04:52:34;99931.90;;;6.98;100.00
34034;BME280;63481;52.588;22.472;2023-03-21T04:53:27;99928.02;;;6.99;100.00
34034;BME280;63481;52.588;22.472;2023-03-21T04:54:19;99930.14;;;6.97;100.00
34034;BME280;63481;52.588;22.472;2023-03-21T04:55:12;99931.08;;;6.96;100.00
34034;BME280;63481;52.588;22.472;2023-03-21T04:56:06;99933.59;;;6.97;100.00
34034;BME280;63481;52.588;22.472;2023-03-21T04:56:59;99931.79;;;6.96;100.00
34034;BME280;63481;52.588;22.472;2023-03-21T04:57:53;99931.47;;;6.97;100.00
34034;BME280;63481;52.588;22.472;2023-03-21T04:58:46;99934.77;;;6.96;100.00
34034;BME280;63481;52.588;22.472;2023-03-21T04:59:39;99933.18;;;6.97;100.00
34034;BME280;63481;52.588;22.472;2023-03-21T05:00:32;99938.71;;;6.98;100.00
34034;BME280;63481;52.588;22.472;2023-03-21T05:01:28;99939.45;;;6.96;100.00
34034;BME280;63481;52.588;22.472;2023-03-21T05:02:22;99935.61;;;6.95;100.00
34034;BME280;63481;52.588;22.472;2023-03-21T05:03:14;99938.23;;;6.95;100.00
34034;BME280;63481;52.588;22.472;2023-03-21T05:04:12;99941.87;;;6.97;100.00
34034;BME280;63481;52.588;22.472;2023-03-21T05:05:06;99939.48;;;6.96;100.00
34034;BME280;63481;52.588;22.472;2023-03-21T05:06:02;99942.20;;;6.97;100.00
34034;BME280;63481;52.588;22.472;2023-03-21T05:06:55;99943.35;;;6.94;100.00
34034;BME280;63481;52.588;22.472;2023-03-21T05:07:48;99943.38;;;6.92;100.00
34034;BME280;63481;52.588;22.472;2023-03-21T05:08:41;99943.40;;;6.91;100.00
34034;BME280;63481;52.588;22.472;2023-03-21T05:09:33;99941.68;;;6.90;100.00
34034;BME280;63481;52.588;22.472;2023-03-21T05:10:26;99942.33;;;6.93;100.00
34034;BME280;63481;52.588;22.472;2023-03-21T05:11:19;99944.85;;;6.93;100.00
34034;BME280;63481;52.588;22.472;2023-03-21T05:12:12;99945.52;;;6.93;100.00
34034;BME280;63481;52.588;22.472;2023-03-21T05:13:04;99946.42;;;6.96;100.00
34034;BME280;63481;52.588;22.472;2023-03-21T05:13:58;99945.50;;;6.92;100.00
34034;BME280;63481;52.588;22.472;2023-03-21T05:14:51;99945.95;;;6.93;100.00
34034;BME280;63481;52.588;22.472;2023-03-21T05:15:43;99945.41;;;6.91;100.00
34034;BME280;63481;52.588;22.472;2023-03-21T05:16:41;99946.83;;;6.94;100.00
34034;BME280;63481;52.588;22.472;2023-03-21T05:17:41;99947.34;;;6.93;100.00
34034;BME280;63481;52.588;22.472;2023-03-21T05:18:34;99953.60;;;6.87;100.00
34034;BME280;63481;52.588;22.472;2023-03-21T05:19:35;99952.79;;;6.87;100.00
34034;BME280;63481;52.588;22.472;2023-03-21T05:20:28;99953.41;;;6.87;100.00
34034;BME280;63481;52.588;22.472;2023-03-21T05:21:21;99953.77;;;6.87;100.00
34034;BME280;63481;52.588;22.472;2023-03-21T05:22:14;99957.50;;;6.92;100.00
34034;BME280;63481;52.588;22.472;2023-03-21T05:23:11;99953.98;;;6.92;100.00
34034;BME280;63481;52.588;22.472;2023-03-21T05:24:04;99954.41;;;6.90;100.00
34034;BME280;63481;52.588;22.472;2023-03-21T05:24:57;99955.36;;;6.87;100.00
34034;BME280;63481;52.588;22.472;2023-03-21T05:26:10;99954.89;;;6.90;100.00
34034;BME280;63481;52.588;22.472;2023-03-21T05:27:10;99952.73;;;6.92;100.00
34034;BME280;63481;52.588;22.472;2023-03-21T05:28:08;99956.61;;;6.89;100.00
34034;BME280;63481;52.588;22.472;2023-03-21T05:29:01;99959.37;;;6.87;100.00
34034;BME280;63481;52.588;22.472;2023-03-21T05:29:54;99958.14;;;6.89;100.00
34034;BME280;63481;52.588;22.472;2023-03-21T05:30:47;99956.52;;;6.89;100.00
34034;BME280;63481;52.588;22.472;2023-03-21T05:31:40;99957.18;;;6.93;100.00
34034;BME280;63481;52.588;22.472;2023-03-21T05:32:35;99960.58;;;6.94;100.00